Time,TemperatureF,DewpointF,PressureIn,WindDirection,WindDirectionDegrees,WindSpeedMPH,WindSpeedGustMPH,Humidity,HourlyPrecipIn,Conditions,Clouds,dailyrainin,SoftwareType,DateUTC
2013-03-24 01:00:00,48.1,48.1,29.78,SE,143,1.7,3.5,100,0.31,,,0.00,Meteorologica,2013-03-24 05:00:00,
2013-03-24 01:01:00,41.9,31.8,29.69,West,279,7.1,24.9,66,0.00,,,1.05,Meteorologica,2013-03-24 05:01:00,
2013-03-24 01:02:00,42.0,31.6,29.68,SSW,196,4.3,24.9,66,0.00,,,1.05,Meteorologica,2013-03-24 05:02:00,
2013-03-24 01:03:00,42.0,31.4,29.69,SSW,200,7.0,24.9,65,0.00,,,1.05,Meteorologica,2013-03-24 05:03:00,
2013-03-24 01:04:00,42.0,31.6,29.69,SSW,208,4.5,24.9,66,0.00,,,1.05,Meteorologica,2013-03-24 05:04:00,
2013-03-24 01:05:00,47.9,47.9,29.76,East,93,5.3,5.3,100,0.31,,,0.01,Meteorologica,2013-03-24 05:05:00,
2013-03-24 01:06:00,41.9,31.8,29.70,WSW,240,8.9,15.8,66,0.00,,,1.05,Meteorologica,2013-03-24 05:06:00,
2013-03-24 01:07:00,41.9,31.6,29.69,WNW,293,8.8,15.8,66,0.00,,,1.05,Meteorologica,2013-03-24 05:07:00,
2013-03-24 01:08:00,42.0,32.1,29.70,WSW,254,5.0,15.8,67,0.00,,,1.05,Meteorologica,2013-03-24 05:08:00,
2013-03-24 01:09:00,41.8,31.5,29.70,South,175,6.1,15.8,66,0.00,,,1.05,Meteorologica,2013-03-24 05:09:00,
2013-03-24 01:10:00,47.8,47.8,29.76,SSE,149,5.6,11.7,100,0.31,,,0.03,Meteorologica,2013-03-24 05:10:00,
2013-03-24 01:11:00,41.8,31.5,29.70,SW,220,6.2,17.2,66,0.00,,,1.05,Meteorologica,2013-03-24 05:11:00,
2013-03-24 01:12:00,41.8,31.5,29.70,WNW,298,5.2,17.2,66,0.00,,,1.05,Meteorologica,2013-03-24 05:12:00,
2013-03-24 01:13:00,41.7,31.7,29.70,NW,307,4.6,17.2,67,0.00,,,1.05,Meteorologica,2013-03-24 05:13:00,
2013-03-24 01:14:00,41.7,31.5,29.70,SSW,204,6.4,17.2,66,0.00,,,1.05,Meteorologica,2013-03-24 05:14:00,
2013-03-24 01:15:00,47.7,47.7,29.78,SW,218,6.3,9.9,100,0.30,,,0.04,Meteorologica,2013-03-24 05:15:00,
2013-03-24 01:16:00,41.6,31.1,29.70,WNW,283,3.6,15.7,65,0.00,,,1.05,Meteorologica,2013-03-24 05:16:00,
2013-03-24 01:17:00,41.7,31.4,29.70,South,176,4.9,15.7,66,0.00,,,1.05,Meteorologica,2013-03-24 05:17:00,
2013-03-24 01:18:00,41.7,31.5,29.70,East,80,1.9,15.7,66,0.00,,,1.05,Meteorologica,2013-03-24 05:18:00,
2013-03-24 01:19:00,41.6,31.5,29.70,SSW,207,5.4,15.7,66,0.00,,,1.05,Meteorologica,2013-03-24 05:19:00,
2013-03-24 01:20:00,47.7,47.7,29.78,SSW,206,1.5,8.8,100,0.30,,,0.06,Meteorologica,2013-03-24 05:20:00,
2013-03-24 01:21:00,41.6,31.5,29.70,West,259,4.4,15.6,66,0.00,,,1.05,Meteorologica,2013-03-24 05:21:00,
2013-03-24 01:22:00,41.5,31.1,29.70,WNW,297,5.5,15.6,65,0.00,,,1.05,Meteorologica,2013-03-24 05:22:00,
2013-03-24 01:23:00,41.6,31.3,29.70,West,280,3.6,15.6,66,0.00,,,1.05,Meteorologica,2013-03-24 05:23:00,
2013-03-24 01:24:00,41.4,31.2,29.70,NE,48,2.7,15.6,66,0.00,,,1.05,Meteorologica,2013-03-24 05:24:00,
2013-03-24 01:25:00,47.8,47.8,29.79,SSW,208,4.2,8.0,100,0.29,,,0.08,Meteorologica,2013-03-24 05:25:00,
2013-03-24 01:26:00,41.3,30.7,29.70,SSW,201,10.3,13.3,65,0.00,,,1.05,Meteorologica,2013-03-24 05:26:00,
2013-03-24 01:27:00,41.4,31.1,29.70,SSW,194,7.4,13.3,66,0.00,,,1.05,Meteorologica,2013-03-24 05:27:00,
2013-03-24 01:28:00,41.3,31.2,29.70,WSW,240,6.1,13.3,66,0.00,,,1.05,Meteorologica,2013-03-24 05:28:00,
2013-03-24 01:29:00,41.3,30.8,29.70,West,259,5.0,13.3,65,0.00,,,1.05,Meteorologica,2013-03-24 05:29:00,
2013-03-24 01:30:00,47.8,47.8,29.79,South,181,4.3,8.7,100,0.26,,,0.09,Meteorologica,2013-03-24 05:30:00,
2013-03-24 01:31:00,41.3,31.2,29.70,SSW,197,3.5,22.8,66,0.00,,,1.05,Meteorologica,2013-03-24 05:31:00,
2013-03-24 01:32:00,41.1,31.0,29.71,SW,232,5.2,22.8,66,0.00,,,1.05,Meteorologica,2013-03-24 05:32:00,
2013-03-24 01:33:00,41.1,31.0,29.71,SSW,192,6.4,22.8,66,0.00,,,1.05,Meteorologica,2013-03-24 05:33:00,
2013-03-24 01:34:00,41.1,30.5,29.71,West,266,6.5,22.8,65,0.00,,,1.05,Meteorologica,2013-03-24 05:34:00,
2013-03-24 01:35:00,47.8,47.8,29.78,SSW,207,3.7,9.4,100,0.22,,,0.10,Meteorologica,2013-03-24 05:35:00,
2013-03-24 01:36:00,41.1,30.9,29.71,West,280,3.4,10.7,66,0.00,,,1.05,Meteorologica,2013-03-24 05:36:00,
2013-03-24 01:37:00,41.0,30.8,29.71,NE,54,1.9,10.7,66,0.00,,,1.05,Meteorologica,2013-03-24 05:37:00,
2013-03-24 01:38:00,41.1,30.9,29.71,WNW,290,2.9,10.7,66,0.00,,,1.05,Meteorologica,2013-03-24 05:38:00,
2013-03-24 01:39:00,41.0,30.9,29.72,North,11,3.5,10.7,66,0.00,,,1.05,Meteorologica,2013-03-24 05:39:00,
2013-03-24 01:40:00,47.9,47.9,29.77,South,189,5.4,10.4,100,0.19,,,0.11,Meteorologica,2013-03-24 05:40:00,
2013-03-24 01:41:00,40.9,30.6,29.72,NNW,345,4.8,8.6,66,0.00,,,1.05,Meteorologica,2013-03-24 05:41:00,
2013-03-24 01:42:00,40.8,29.6,29.72,WSW,256,7.2,8.6,63,0.00,,,1.05,Meteorologica,2013-03-24 05:42:00,
2013-03-24 01:43:00,40.8,30.3,29.72,NNE,33,4.9,8.6,65,0.00,,,1.05,Meteorologica,2013-03-24 05:43:00,
2013-03-24 01:44:00,40.7,30.0,29.72,ESE,107,5.0,8.6,64,0.00,,,1.05,Meteorologica,2013-03-24 05:44:00,
2013-03-24 01:45:00,48.1,48.1,29.77,South,184,4.3,9.9,100,0.16,,,0.11,Meteorologica,2013-03-24 05:45:00,
2013-03-24 01:46:00,40.7,29.2,29.72,WNW,293,6.7,11.4,63,0.00,,,1.05,Meteorologica,2013-03-24 05:46:00,
2013-03-24 01:47:00,40.7,29.6,29.72,ESE,103,2.8,11.4,64,0.00,,,1.05,Meteorologica,2013-03-24 05:47:00,
2013-03-24 01:48:00,40.8,29.5,29.72,West,272,3.2,11.4,63,0.00,,,1.05,Meteorologica,2013-03-24 05:48:00,
2013-03-24 01:49:00,40.7,29.7,29.72,West,266,4.5,11.4,64,0.00,,,1.05,Meteorologica,2013-03-24 05:49:00,
2013-03-24 01:50:00,48.2,48.2,29.76,South,177,2.8,9.5,100,0.14,,,0.11,Meteorologica,2013-03-24 05:50:00,
2013-03-24 01:51:00,40.7,29.4,29.72,WNW,291,3.3,11.3,63,0.00,,,1.05,Meteorologica,2013-03-24 05:51:00,
2013-03-24 01:52:00,40.6,29.6,29.72,SSW,209,4.4,11.3,64,0.00,,,1.05,Meteorologica,2013-03-24 05:52:00,
2013-03-24 01:53:00,40.7,29.9,29.72,East,90,2.5,11.3,65,0.00,,,1.05,Meteorologica,2013-03-24 05:53:00,
2013-03-24 01:54:00,40.6,29.8,29.72,South,182,3.2,11.3,65,0.00,,,1.05,Meteorologica,2013-03-24 05:54:00,
2013-03-24 01:55:00,48.3,48.3,29.75,ESE,104,1.0,5.0,100,0.12,,,0.11,Meteorologica,2013-03-24 05:55:00,
2013-03-24 01:56:00,40.4,29.3,29.72,SSW,201,3.9,12.0,64,0.00,,,1.05,Meteorologica,2013-03-24 05:56:00,
2013-03-24 01:57:00,40.4,29.5,29.72,SSW,210,5.1,12.0,64,0.00,,,1.05,Meteorologica,2013-03-24 05:57:00,
2013-03-24 01:58:00,40.4,29.1,29.72,SSW,209,6.0,12.0,63,0.00,,,1.05,Meteorologica,2013-03-24 05:58:00,
2013-03-24 01:59:00,40.4,29.3,29.72,ENE,65,5.1,12.0,64,0.00,,,1.05,Meteorologica,2013-03-24 05:59:00,
2013-03-24 02:00:00,48.5,48.5,29.75,East,86,0.0,2.3,100,0.10,,,0.11,Meteorologica,2013-03-24 06:00:00,
2013-03-24 02:06:00,48.5,48.5,29.75,NNW,331,0.0,2.7,100,0.08,,,0.11,Meteorologica,2013-03-24 06:06:00,
2013-03-24 02:11:00,48.5,48.5,29.74,NNW,331,0.0,0.0,100,0.08,,,0.12,Meteorologica,2013-03-24 06:11:00,
2013-03-24 02:16:00,48.5,48.5,29.73,NNE,26,0.0,0.0,100,0.07,,,0.13,Meteorologica,2013-03-24 06:16:00,
2013-03-24 02:21:00,48.5,48.5,29.72,NNE,26,0.0,3.2,100,0.05,,,0.13,Meteorologica,2013-03-24 06:21:00,
2013-03-24 02:27:00,48.6,48.6,29.72,NE,40,0.0,0.9,100,0.04,,,0.13,Meteorologica,2013-03-24 06:27:00,
2013-03-24 02:32:00,48.5,48.5,29.71,SE,139,1.1,0.0,100,0.04,,,0.14,Meteorologica,2013-03-24 06:32:00,
2013-03-24 02:37:00,48.7,48.7,29.71,SSE,160,0.0,4.7,100,0.04,,,0.14,Meteorologica,2013-03-24 06:37:00,
2013-03-24 02:42:00,48.5,48.5,29.71,NNW,330,0.0,0.0,100,0.03,,,0.14,Meteorologica,2013-03-24 06:42:00,
2013-03-24 02:47:00,48.7,48.7,29.71,NNW,330,0.0,2.7,100,0.03,,,0.14,Meteorologica,2013-03-24 06:47:00,
2013-03-24 02:53:00,48.7,48.7,29.72,WNW,302,0.0,0.0,100,0.03,,,0.14,Meteorologica,2013-03-24 06:53:00,
2013-03-24 02:58:00,48.6,48.6,29.72,WNW,302,0.0,2.1,100,0.05,,,0.16,Meteorologica,2013-03-24 06:58:00,
2013-03-24 03:03:00,48.5,48.5,29.71,WNW,302,0.0,0.0,100,0.06,,,0.17,Meteorologica,2013-03-24 07:03:00,
2013-03-24 03:08:00,48.6,48.6,29.72,WNW,302,0.0,0.0,100,0.08,,,0.18,Meteorologica,2013-03-24 07:08:00,
2013-03-24 03:14:00,48.5,48.5,29.72,WNW,302,0.0,0.0,100,0.07,,,0.20,Meteorologica,2013-03-24 07:14:00,
2013-03-24 03:19:00,48.4,48.4,29.73,West,279,1.4,2.4,100,0.07,,,0.20,Meteorologica,2013-03-24 07:19:00,
2013-03-24 04:00:00,47.6,47.6,29.68,NNE,15,4.6,6.9,100,0.13,,,0.30,Meteorologica,2013-03-24 08:00:00,
2013-03-24 04:05:00,47.4,47.4,29.67,North,3,4.3,6.7,100,0.12,,,0.30,Meteorologica,2013-03-24 08:05:00,
2013-03-24 04:10:00,47.4,47.4,29.67,North,7,3.3,6.3,100,0.12,,,0.31,Meteorologica,2013-03-24 08:10:00,
2013-03-24 04:15:00,47.4,47.4,29.67,North,6,2.8,5.9,100,0.11,,,0.31,Meteorologica,2013-03-24 08:15:00,
2013-03-24 04:20:00,47.2,47.2,29.67,NNE,23,2.6,5.9,100,0.12,,,0.32,Meteorologica,2013-03-24 08:20:00,
2013-03-24 04:25:00,47.3,47.3,29.65,NNE,19,3.6,5.2,100,0.11,,,0.32,Meteorologica,2013-03-24 08:25:00,
2013-03-24 04:30:00,47.3,47.3,29.64,NNE,22,1.6,5.6,100,0.09,,,0.33,Meteorologica,2013-03-24 08:30:00,
2013-03-24 04:35:00,47.1,47.1,29.65,North,8,0.0,5.5,100,0.08,,,0.34,Meteorologica,2013-03-24 08:35:00,
2013-03-24 04:40:00,47.0,47.0,29.66,North,0,4.5,0.0,100,0.08,,,0.35,Meteorologica,2013-03-24 08:40:00,
2013-03-24 04:45:00,47.0,47.0,29.67,North,7,2.7,6.6,100,0.08,,,0.36,Meteorologica,2013-03-24 08:45:00,
2013-03-24 04:50:00,47.0,47.0,29.66,North,1,0.0,6.0,100,0.08,,,0.37,Meteorologica,2013-03-24 08:50:00,
2013-03-24 04:55:00,47.0,47.0,29.65,North,1,0.0,2.5,100,0.08,,,0.38,Meteorologica,2013-03-24 08:55:00,
2013-03-24 05:00:00,46.9,46.9,29.65,North,9,2.3,5.2,100,0.09,,,0.39,Meteorologica,2013-03-24 09:00:00,
2013-03-24 05:05:00,46.9,46.9,29.65,NNE,18,2.6,5.4,100,0.10,,,0.41,Meteorologica,2013-03-24 09:05:00,
2013-03-24 05:10:00,46.9,46.9,29.65,NNE,26,0.0,4.3,100,0.12,,,0.43,Meteorologica,2013-03-24 09:10:00,
2013-03-24 05:15:00,46.9,46.9,29.65,NNE,26,0.0,0.0,100,0.13,,,0.45,Meteorologica,2013-03-24 09:15:00,
2013-03-24 05:20:00,46.9,46.9,29.65,NNE,21,0.0,3.5,100,0.15,,,0.47,Meteorologica,2013-03-24 09:20:00,
2013-03-24 05:25:00,46.9,46.9,29.66,NNE,21,0.0,0.0,100,0.18,,,0.51,Meteorologica,2013-03-24 09:25:00,
2013-03-24 05:30:00,46.9,46.9,29.67,NNE,21,0.0,0.0,100,0.21,,,0.54,Meteorologica,2013-03-24 09:30:00,
2013-03-24 05:36:00,47.0,47.0,29.67,NNE,21,0.0,0.0,100,0.23,,,0.57,Meteorologica,2013-03-24 09:36:00,
2013-03-24 05:41:00,47.0,47.0,29.67,NNE,21,0.0,0.0,100,0.24,,,0.59,Meteorologica,2013-03-24 09:41:00,
2013-03-24 05:46:00,47.1,47.1,29.67,NNE,21,0.0,0.0,100,0.23,,,0.59,Meteorologica,2013-03-24 09:46:00,
2013-03-24 05:51:00,47.2,47.2,29.67,NNE,21,0.0,0.0,100,0.22,,,0.59,Meteorologica,2013-03-24 09:51:00,
2013-03-24 05:56:00,47.1,47.1,29.67,NNE,21,0.0,0.0,100,0.22,,,0.60,Meteorologica,2013-03-24 09:56:00,
2013-03-24 06:01:00,47.3,47.3,29.67,NNE,21,0.0,0.0,100,0.20,,,0.60,Meteorologica,2013-03-24 10:01:00,
2013-03-24 06:07:00,47.0,47.0,29.67,NNE,21,0.0,0.0,100,0.18,,,0.60,Meteorologica,2013-03-24 10:07:00,
2013-03-24 06:12:00,47.1,47.1,29.67,NNE,21,0.0,0.0,100,0.17,,,0.61,Meteorologica,2013-03-24 10:12:00,
2013-03-24 06:17:00,47.2,47.2,29.63,NNE,21,0.0,0.0,100,0.18,,,0.64,Meteorologica,2013-03-24 10:17:00,
2013-03-24 06:22:00,47.1,47.1,29.64,ENE,59,0.0,1.8,100,0.16,,,0.64,Meteorologica,2013-03-24 10:22:00,
2013-03-24 06:27:00,47.1,47.1,29.65,SE,138,0.0,2.9,100,0.14,,,0.66,Meteorologica,2013-03-24 10:27:00,
2013-03-24 06:32:00,47.2,47.2,29.64,SE,138,0.0,2.5,100,0.10,,,0.66,Meteorologica,2013-03-24 10:32:00,
2013-03-24 06:37:00,47.1,47.1,29.62,SE,138,0.0,0.0,100,0.07,,,0.66,Meteorologica,2013-03-24 10:37:00,
2013-03-24 06:42:00,47.1,47.1,29.60,NNE,14,2.4,0.0,100,0.07,,,0.66,Meteorologica,2013-03-24 10:42:00,
2013-03-24 06:47:00,47.0,47.0,29.60,NNE,14,0.0,6.3,100,0.07,,,0.66,Meteorologica,2013-03-24 10:47:00,
2013-03-24 06:52:00,47.1,47.1,29.62,NNW,341,0.1,2.8,100,0.07,,,0.66,Meteorologica,2013-03-24 10:52:00,
2013-03-24 06:57:00,47.1,47.1,29.63,NNW,333,0.0,2.9,100,0.06,,,0.66,Meteorologica,2013-03-24 10:57:00,
2013-03-24 07:03:00,47.1,47.1,29.62,NNW,333,0.0,3.4,100,0.06,,,0.66,Meteorologica,2013-03-24 11:03:00,
2013-03-24 07:08:00,47.1,47.1,29.63,NNW,333,0.0,0.0,100,0.06,,,0.66,Meteorologica,2013-03-24 11:08:00,
2013-03-24 07:13:00,47.1,47.1,29.63,NNW,333,0.0,0.0,100,0.03,,,0.66,Meteorologica,2013-03-24 11:13:00,
2013-03-24 07:18:00,47.0,47.0,29.62,NNW,333,0.0,0.0,100,0.02,,,0.66,Meteorologica,2013-03-24 11:18:00,
2013-03-24 07:23:00,46.9,46.9,29.62,NNW,333,0.0,0.0,100,0.01,,,0.66,Meteorologica,2013-03-24 11:23:00,
2013-03-24 07:29:00,46.9,46.9,29.63,NNW,333,0.0,0.0,100,0.00,,,0.66,Meteorologica,2013-03-24 11:29:00,
2013-03-24 07:34:00,46.8,46.8,29.63,NNW,333,0.0,0.0,100,0.00,,,0.66,Meteorologica,2013-03-24 11:34:00,
2013-03-24 07:39:00,46.8,46.8,29.63,NNW,333,0.0,0.0,100,0.00,,,0.66,Meteorologica,2013-03-24 11:39:00,
2013-03-24 07:44:00,46.9,46.9,29.62,NNW,333,0.0,0.0,100,0.00,,,0.66,Meteorologica,2013-03-24 11:44:00,
2013-03-24 07:49:00,47.0,47.0,29.63,NNW,333,0.0,0.0,100,0.00,,,0.66,Meteorologica,2013-03-24 11:49:00,
2013-03-24 07:54:00,46.9,46.9,29.63,NNW,333,0.0,0.0,100,0.00,,,0.66,Meteorologica,2013-03-24 11:54:00,
2013-03-24 07:59:00,46.9,46.9,29.63,NNW,333,0.0,0.0,100,0.00,,,0.66,Meteorologica,2013-03-24 11:59:00,
2013-03-24 08:04:00,46.8,46.8,29.63,NNW,333,0.0,0.0,100,0.00,,,0.66,Meteorologica,2013-03-24 12:04:00,
2013-03-24 08:09:00,46.9,46.9,29.63,WNW,296,0.1,0.0,100,0.00,,,0.66,Meteorologica,2013-03-24 12:09:00,
2013-03-24 08:14:00,46.9,46.9,29.64,NW,311,0.0,4.1,100,0.00,,,0.66,Meteorologica,2013-03-24 12:14:00,
2013-03-24 08:20:00,46.7,46.7,29.64,NW,311,0.0,0.0,100,0.00,,,0.66,Meteorologica,2013-03-24 12:20:00,
2013-03-24 08:25:00,46.7,46.7,29.63,NW,311,0.0,0.0,100,0.00,,,0.66,Meteorologica,2013-03-24 12:25:00,
2013-03-24 08:30:00,46.8,46.8,29.62,NW,311,0.0,0.0,100,0.00,,,0.66,Meteorologica,2013-03-24 12:30:00,
2013-03-24 08:35:00,46.9,46.9,29.61,NW,311,0.0,0.0,100,0.01,,,0.67,Meteorologica,2013-03-24 12:35:00,
2013-03-24 08:40:00,47.1,47.1,29.61,East,84,0.0,4.5,100,0.01,,,0.67,Meteorologica,2013-03-24 12:40:00,
2013-03-24 08:45:00,47.0,47.0,29.61,NNW,345,1.6,3.7,100,0.01,,,0.67,Meteorologica,2013-03-24 12:45:00,
2013-03-24 08:50:00,47.0,47.0,29.62,North,351,0.8,3.7,100,0.01,,,0.67,Meteorologica,2013-03-24 12:50:00,
2013-03-24 08:56:00,47.1,47.1,29.62,North,351,0.0,1.9,100,0.01,,,0.67,Meteorologica,2013-03-24 12:56:00,
2013-03-24 09:01:00,47.0,47.0,29.62,NNE,15,0.0,1.0,100,0.01,,,0.67,Meteorologica,2013-03-24 13:01:00,
2013-03-24 09:06:00,47.2,47.2,29.62,NNE,15,0.0,0.0,100,0.01,,,0.67,Meteorologica,2013-03-24 13:06:00,
2013-03-24 09:12:00,47.1,47.1,29.62,NNW,335,0.7,0.0,100,0.01,,,0.67,Meteorologica,2013-03-24 13:12:00,
2013-03-24 09:17:00,47.2,47.2,29.62,NW,317,0.0,1.7,100,0.01,,,0.67,Meteorologica,2013-03-24 13:17:00,
2013-03-24 09:22:00,47.1,47.1,29.62,NW,317,0.0,0.4,100,0.01,,,0.67,Meteorologica,2013-03-24 13:22:00,
2013-03-24 09:27:00,47.1,47.1,29.62,NW,317,0.0,0.0,100,0.01,,,0.67,Meteorologica,2013-03-24 13:27:00,
2013-03-24 09:32:00,47.1,47.1,29.62,NW,317,0.0,0.0,100,0.00,,,0.67,Meteorologica,2013-03-24 13:32:00,
2013-03-24 09:37:00,47.3,47.3,29.62,NW,317,0.0,0.0,100,0.00,,,0.67,Meteorologica,2013-03-24 13:37:00,
2013-03-24 09:42:00,47.4,47.4,29.62,NW,317,0.0,0.0,100,0.00,,,0.67,Meteorologica,2013-03-24 13:42:00,
2013-03-24 09:48:00,47.4,47.4,29.62,NW,317,0.0,0.0,100,0.00,,,0.67,Meteorologica,2013-03-24 13:48:00,
2013-03-24 09:53:00,47.5,47.5,29.63,NW,317,0.0,0.0,100,0.00,,,0.67,Meteorologica,2013-03-24 13:53:00,
2013-03-24 09:58:00,47.4,47.4,29.63,NW,317,0.0,0.0,100,0.01,,,0.68,Meteorologica,2013-03-24 13:58:00,
2013-03-24 10:04:00,47.3,47.3,29.62,NW,317,0.0,0.0,100,0.01,,,0.68,Meteorologica,2013-03-24 14:04:00,
2013-03-24 10:09:00,47.5,47.5,29.62,NW,317,0.0,0.0,100,0.01,,,0.68,Meteorologica,2013-03-24 14:09:00,
2013-03-24 10:14:00,47.4,47.4,29.62,WNW,303,0.0,2.9,100,0.01,,,0.68,Meteorologica,2013-03-24 14:14:00,
2013-03-24 10:19:00,47.4,47.4,29.62,WNW,303,0.0,0.0,100,0.01,,,0.68,Meteorologica,2013-03-24 14:19:00,
2013-03-24 10:24:00,47.6,47.6,29.63,WNW,303,0.0,0.0,100,0.01,,,0.68,Meteorologica,2013-03-24 14:24:00,
2013-03-24 10:30:00,47.6,47.6,29.64,WNW,303,0.0,0.0,100,0.01,,,0.68,Meteorologica,2013-03-24 14:30:00,
2013-03-24 10:35:00,47.6,47.6,29.63,WNW,303,0.0,0.0,100,0.01,,,0.68,Meteorologica,2013-03-24 14:35:00,
2013-03-24 10:40:00,47.6,47.6,29.63,WNW,303,0.0,0.0,100,0.01,,,0.68,Meteorologica,2013-03-24 14:40:00,
2013-03-24 10:45:00,47.7,47.7,29.63,WNW,303,0.0,0.0,100,0.01,,,0.68,Meteorologica,2013-03-24 14:45:00,
2013-03-24 10:51:00,47.6,47.6,29.63,WNW,303,0.0,0.0,100,0.01,,,0.68,Meteorologica,2013-03-24 14:51:00,
2013-03-24 10:56:00,47.9,47.9,29.64,WNW,303,0.0,0.0,100,0.00,,,0.68,Meteorologica,2013-03-24 14:56:00,
2013-03-24 11:01:00,48.1,48.1,29.63,WNW,303,0.0,0.0,100,0.00,,,0.68,Meteorologica,2013-03-24 15:01:00,
2013-03-24 11:07:00,48.2,48.2,29.63,WNW,303,0.0,0.0,100,0.00,,,0.68,Meteorologica,2013-03-24 15:07:00,
2013-03-24 11:12:00,48.3,48.3,29.63,WNW,303,0.0,0.0,100,0.00,,,0.68,Meteorologica,2013-03-24 15:12:00,
2013-03-24 11:17:00,48.5,48.5,29.62,WNW,303,0.0,0.0,100,0.00,,,0.68,Meteorologica,2013-03-24 15:17:00,
2013-03-24 11:23:00,48.5,48.5,29.62,WNW,303,0.0,0.0,100,0.00,,,0.68,Meteorologica,2013-03-24 15:23:00,
2013-03-24 11:28:00,48.9,48.9,29.61,WNW,303,0.0,0.0,100,0.00,,,0.68,Meteorologica,2013-03-24 15:28:00,
2013-03-24 11:33:00,49.5,49.5,29.61,WNW,303,0.0,0.0,100,0.00,,,0.68,Meteorologica,2013-03-24 15:33:00,
2013-03-24 11:38:00,49.9,49.9,29.60,WNW,303,0.0,0.0,100,0.00,,,0.68,Meteorologica,2013-03-24 15:38:00,
2013-03-24 11:44:00,50.3,50.2,29.60,WNW,303,0.0,0.0,100,0.00,,,0.68,Meteorologica,2013-03-24 15:44:00,
2013-03-24 11:49:00,50.6,50.6,29.60,WNW,303,0.0,0.0,100,0.00,,,0.68,Meteorologica,2013-03-24 15:49:00,
2013-03-24 11:54:00,50.7,50.7,29.60,WNW,303,0.0,0.0,100,0.00,,,0.68,Meteorologica,2013-03-24 15:54:00,
2013-03-24 11:59:00,50.9,50.9,29.60,WNW,303,0.0,0.0,100,0.00,,,0.68,Meteorologica,2013-03-24 15:59:00,
2013-03-24 12:04:00,51.0,51.0,29.60,WNW,303,0.0,0.0,100,0.00,,,0.68,Meteorologica,2013-03-24 16:04:00,
2013-03-24 12:10:00,51.5,51.5,29.60,WNW,303,0.0,0.0,100,0.00,,,0.68,Meteorologica,2013-03-24 16:10:00,
2013-03-24 12:15:00,51.8,51.8,29.60,WNW,303,0.0,0.0,100,0.00,,,0.68,Meteorologica,2013-03-24 16:15:00,
2013-03-24 12:20:00,51.9,51.9,29.59,WNW,303,0.0,0.0,100,0.00,,,0.68,Meteorologica,2013-03-24 16:20:00,
2013-03-24 12:25:00,51.9,51.9,29.59,WNW,303,0.0,0.0,100,0.00,,,0.68,Meteorologica,2013-03-24 16:25:00,
2013-03-24 12:30:00,52.0,52.0,29.58,WNW,303,0.0,0.0,100,0.00,,,0.68,Meteorologica,2013-03-24 16:30:00,
2013-03-24 12:35:00,52.0,52.0,29.58,WNW,303,0.0,0.0,100,0.00,,,0.68,Meteorologica,2013-03-24 16:35:00,
2013-03-24 12:41:00,52.1,52.1,29.58,WNW,303,0.0,0.0,100,0.00,,,0.68,Meteorologica,2013-03-24 16:41:00,
2013-03-24 12:46:00,52.2,52.2,29.58,WNW,303,0.0,0.0,100,0.00,,,0.68,Meteorologica,2013-03-24 16:46:00,
2013-03-24 12:51:00,52.4,52.4,29.57,WNW,303,0.0,0.0,100,0.00,,,0.68,Meteorologica,2013-03-24 16:51:00,
2013-03-24 12:57:00,52.6,52.6,29.57,WNW,303,0.0,0.0,100,0.00,,,0.68,Meteorologica,2013-03-24 16:57:00,
2013-03-24 13:02:00,53.0,53.0,29.57,WNW,303,0.0,0.0,100,0.00,,,0.68,Meteorologica,2013-03-24 17:02:00,
2013-03-24 13:07:00,53.5,53.5,29.57,WNW,303,0.0,0.0,100,0.00,,,0.68,Meteorologica,2013-03-24 17:07:00,
2013-03-24 13:12:00,54.4,54.4,29.57,South,191,0.1,0.0,100,0.00,,,0.68,Meteorologica,2013-03-24 17:12:00,
2013-03-24 13:17:00,55.0,55.0,29.56,South,190,1.6,1.6,100,0.00,,,0.68,Meteorologica,2013-03-24 17:17:00,
2013-03-24 13:22:00,55.6,55.6,29.57,WSW,245,2.0,6.3,100,0.00,,,0.68,Meteorologica,2013-03-24 17:22:00,
2013-03-24 13:27:00,55.8,55.8,29.57,WSW,250,2.5,6.9,100,0.00,,,0.68,Meteorologica,2013-03-24 17:27:00,
2013-03-24 13:32:00,55.5,55.5,29.57,West,262,1.9,6.8,100,0.00,,,0.68,Meteorologica,2013-03-24 17:32:00,
2013-03-24 13:37:00,55.2,55.2,29.57,SSW,204,3.0,6.0,100,0.00,,,0.68,Meteorologica,2013-03-24 17:37:00,
2013-03-24 13:42:00,54.9,54.9,29.57,SSW,196,6.0,6.6,100,0.00,,,0.68,Meteorologica,2013-03-24 17:42:00,
2013-03-24 13:47:00,54.7,54.7,29.56,South,191,8.7,12.8,100,0.00,,,0.68,Meteorologica,2013-03-24 17:47:00,
2013-03-24 13:53:00,54.5,54.5,29.56,South,190,6.5,12.3,100,0.00,,,0.68,Meteorologica,2013-03-24 17:53:00,
2013-03-24 13:57:00,54.8,54.8,29.56,SSE,162,8.1,14.7,100,0.00,,,0.68,Meteorologica,2013-03-24 17:57:00,
2013-03-24 14:03:00,55.3,55.3,29.56,SSW,206,8.4,13.8,100,0.00,,,0.68,Meteorologica,2013-03-24 18:03:00,
2013-03-24 14:08:00,55.4,55.4,29.54,SW,218,9.7,12.3,100,0.00,,,0.68,Meteorologica,2013-03-24 18:08:00,
2013-03-24 14:13:00,55.9,55.9,29.54,South,177,9.3,15.2,100,0.00,,,0.68,Meteorologica,2013-03-24 18:13:00,
2013-03-24 14:18:00,56.5,56.5,29.54,SSW,197,7.9,16.7,100,0.00,,,0.68,Meteorologica,2013-03-24 18:18:00,
2013-03-24 14:23:00,57.2,57.2,29.54,SSW,209,5.8,11.5,100,0.00,,,0.68,Meteorologica,2013-03-24 18:23:00,
2013-03-24 14:28:00,57.7,57.7,29.54,South,182,6.7,16.3,100,0.00,,,0.68,Meteorologica,2013-03-24 18:28:00,
2013-03-24 14:33:00,58.2,58.2,29.54,SSE,161,5.6,15.5,100,0.00,,,0.68,Meteorologica,2013-03-24 18:33:00,
2013-03-24 14:38:00,58.9,58.9,29.53,South,177,7.1,10.7,100,0.00,,,0.68,Meteorologica,2013-03-24 18:38:00,
2013-03-24 14:43:00,59.1,55.1,29.52,SSW,204,6.7,15.1,86,0.00,,,0.68,Meteorologica,2013-03-24 18:43:00,
2013-03-24 14:48:00,59.3,56.1,29.52,SE,145,3.5,17.3,89,0.00,,,0.68,Meteorologica,2013-03-24 18:48:00,
2013-03-24 14:53:00,59.2,55.7,29.52,SSW,197,9.4,16.6,88,0.00,,,0.68,Meteorologica,2013-03-24 18:53:00,
2013-03-24 14:58:00,59.4,54.4,29.52,SSW,193,8.9,19.8,83,0.00,,,0.68,Meteorologica,2013-03-24 18:58:00,
2013-03-24 15:03:00,59.5,54.2,29.51,SSE,154,8.5,16.0,82,0.00,,,0.68,Meteorologica,2013-03-24 19:03:00,
2013-03-24 15:08:00,59.4,53.7,29.50,SSW,195,6.4,20.5,81,0.00,,,0.68,Meteorologica,2013-03-24 19:08:00,
2013-03-24 15:13:00,59.5,53.2,29.50,South,191,9.7,17.9,79,0.00,,,0.68,Meteorologica,2013-03-24 19:13:00,
2013-03-24 15:18:00,59.5,54.5,29.50,SSW,199,8.9,14.3,83,0.00,,,0.68,Meteorologica,2013-03-24 19:18:00,
2013-03-24 15:23:00,59.9,54.3,29.51,SSW,193,9.8,15.9,81,0.00,,,0.68,Meteorologica,2013-03-24 19:23:00,
2013-03-24 15:28:00,59.7,53.3,29.51,SW,231,8.4,19.2,79,0.00,,,0.68,Meteorologica,2013-03-24 19:28:00,
2013-03-24 15:33:00,59.4,53.3,29.51,SSW,194,7.1,13.0,80,0.00,,,0.68,Meteorologica,2013-03-24 19:33:00,
2013-03-24 15:38:00,59.2,52.9,29.51,SSE,159,6.9,14.5,79,0.00,,,0.68,Meteorologica,2013-03-24 19:38:00,
2013-03-24 15:43:00,58.7,52.0,29.50,SSE,163,9.2,16.0,78,0.00,,,0.68,Meteorologica,2013-03-24 19:43:00,
2013-03-24 15:48:00,58.1,52.3,29.50,SSW,204,5.2,13.6,80,0.00,,,0.68,Meteorologica,2013-03-24 19:48:00,
2013-03-24 15:53:00,57.7,52.6,29.49,SSW,197,7.1,12.0,83,0.00,,,0.68,Meteorologica,2013-03-24 19:53:00,
2013-03-24 15:59:00,57.6,53.6,29.49,SSW,210,8.6,13.9,86,0.00,,,0.68,Meteorologica,2013-03-24 19:59:00,
2013-03-24 16:04:00,57.7,53.3,29.48,South,189,7.6,16.7,85,0.00,,,0.68,Meteorologica,2013-03-24 20:04:00,
2013-03-24 16:09:00,57.9,53.2,29.48,SW,218,5.8,10.4,84,0.00,,,0.68,Meteorologica,2013-03-24 20:09:00,
2013-03-24 16:14:00,57.8,52.5,29.48,SSW,192,8.7,19.6,82,0.00,,,0.68,Meteorologica,2013-03-24 20:14:00,
2013-03-24 16:19:00,57.6,52.9,29.47,SSW,205,7.5,16.1,84,0.00,,,0.68,Meteorologica,2013-03-24 20:19:00,
2013-03-24 16:24:00,57.3,52.5,29.47,SSW,203,12.0,21.8,83,0.00,,,0.68,Meteorologica,2013-03-24 20:24:00,
2013-03-24 16:29:00,57.0,52.6,29.47,South,190,7.1,21.6,85,0.00,,,0.68,Meteorologica,2013-03-24 20:29:00,
2013-03-24 16:34:00,56.7,52.4,29.47,South,188,9.3,17.5,85,0.00,,,0.68,Meteorologica,2013-03-24 20:34:00,
2013-03-24 16:39:00,56.3,52.5,29.46,SSW,195,6.7,20.5,87,0.00,,,0.68,Meteorologica,2013-03-24 20:39:00,
2013-03-24 16:44:00,56.1,52.6,29.46,SSW,209,7.9,13.5,88,0.00,,,0.68,Meteorologica,2013-03-24 20:44:00,
2013-03-24 16:49:00,56.0,52.6,29.46,SSW,198,8.6,18.5,88,0.00,,,0.68,Meteorologica,2013-03-24 20:49:00,
2013-03-24 16:54:00,55.9,52.7,29.46,SSW,210,9.0,14.5,89,0.00,,,0.68,Meteorologica,2013-03-24 20:54:00,
2013-03-24 16:59:00,55.8,52.9,29.45,SSE,168,7.3,15.7,90,0.00,,,0.68,Meteorologica,2013-03-24 20:59:00,
2013-03-24 17:04:00,55.4,52.6,29.44,SSW,199,4.7,14.6,90,0.00,,,0.68,Meteorologica,2013-03-24 21:04:00,
2013-03-24 17:09:00,55.2,52.7,29.44,SSE,152,5.5,11.2,91,0.00,,,0.68,Meteorologica,2013-03-24 21:09:00,
2013-03-24 17:14:00,55.1,52.6,29.44,SSW,206,8.0,17.1,91,0.00,,,0.68,Meteorologica,2013-03-24 21:14:00,
2013-03-24 17:19:00,54.8,52.6,29.44,SE,135,6.6,18.0,92,0.00,,,0.68,Meteorologica,2013-03-24 21:19:00,
2013-03-24 17:24:00,54.8,53.3,29.44,SSW,205,6.1,13.3,94,0.00,,,0.68,Meteorologica,2013-03-24 21:24:00,
2013-03-24 17:29:00,54.6,54.6,29.44,SSE,165,5.8,11.7,100,0.00,,,0.68,Meteorologica,2013-03-24 21:29:00,
2013-03-24 17:34:00,54.7,54.7,29.44,South,186,5.7,9.8,100,0.01,,,0.69,Meteorologica,2013-03-24 21:34:00,
2013-03-24 17:39:00,54.3,54.3,29.44,South,187,8.4,11.2,100,0.07,,,0.75,Meteorologica,2013-03-24 21:39:00,
2013-03-24 17:44:00,54.0,54.0,29.44,SW,231,3.8,12.6,100,0.26,,,0.94,Meteorologica,2013-03-24 21:44:00,
2013-03-24 17:49:00,53.6,53.6,29.46,South,174,4.4,7.5,100,0.28,,,0.96,Meteorologica,2013-03-24 21:49:00,
2013-03-24 17:54:00,53.4,53.4,29.46,SSW,203,5.5,10.0,100,0.36,,,1.04,Meteorologica,2013-03-24 21:54:00,
2013-03-24 17:59:00,53.2,53.2,29.47,SSW,206,6.9,11.3,100,0.37,,,1.05,Meteorologica,2013-03-24 21:59:00,
2013-03-24 18:04:00,53.0,53.0,29.47,SSE,166,6.9,12.5,100,0.37,,,1.05,Meteorologica,2013-03-24 22:04:00,
2013-03-24 18:09:00,53.0,53.0,29.48,SSW,201,5.2,19.9,100,0.37,,,1.05,Meteorologica,2013-03-24 22:09:00,
2013-03-24 18:14:00,52.9,52.9,29.49,SW,231,3.7,14.4,100,0.37,,,1.05,Meteorologica,2013-03-24 22:14:00,
2013-03-24 18:19:00,52.8,52.8,29.49,SSE,159,4.3,15.4,100,0.37,,,1.05,Meteorologica,2013-03-24 22:19:00,
2013-03-24 18:24:00,52.6,52.6,29.50,SW,230,5.0,9.1,100,0.37,,,1.05,Meteorologica,2013-03-24 22:24:00,
2013-03-24 18:29:00,52.5,52.5,29.50,SSW,197,4.3,11.2,100,0.37,,,1.05,Meteorologica,2013-03-24 22:29:00,
2013-03-24 18:34:00,52.3,52.3,29.50,WSW,249,2.4,7.4,100,0.35,,,1.05,Meteorologica,2013-03-24 22:34:00,
2013-03-24 18:39:00,52.2,52.2,29.51,SW,221,3.8,8.2,100,0.25,,,1.05,Meteorologica,2013-03-24 22:39:00,
2013-03-24 18:44:00,52.1,52.1,29.51,SW,223,7.1,10.1,100,0.11,,,1.05,Meteorologica,2013-03-24 22:44:00,
2013-03-24 18:49:00,51.7,51.7,29.52,NW,319,6.8,16.0,100,0.06,,,1.05,Meteorologica,2013-03-24 22:49:00,
2013-03-24 18:54:00,51.6,51.6,29.52,SW,236,5.0,16.1,100,0.01,,,1.05,Meteorologica,2013-03-24 22:54:00,
2013-03-24 18:59:00,51.5,50.4,29.53,SW,227,4.5,12.0,96,0.00,,,1.05,Meteorologica,2013-03-24 22:59:00,
2013-03-24 19:04:00,51.2,48.9,29.52,SE,146,3.5,10.6,92,0.00,,,1.05,Meteorologica,2013-03-24 23:04:00,
2013-03-24 19:09:00,51.0,48.7,29.53,SSE,167,4.6,7.6,92,0.00,,,1.05,Meteorologica,2013-03-24 23:09:00,
2013-03-24 19:14:00,50.9,49.0,29.52,ENE,61,2.4,9.7,93,0.00,,,1.05,Meteorologica,2013-03-24 23:14:00,
2013-03-24 19:19:00,50.7,48.3,29.52,SW,218,6.2,11.4,91,0.00,,,1.05,Meteorologica,2013-03-24 23:19:00,
2013-03-24 19:24:00,50.6,46.4,29.52,SW,216,6.2,16.2,85,0.00,,,1.05,Meteorologica,2013-03-24 23:24:00,
2013-03-24 19:29:00,50.5,45.2,29.52,SSE,152,4.4,15.5,82,0.00,,,1.05,Meteorologica,2013-03-24 23:29:00,
2013-03-24 19:34:00,50.6,45.2,29.53,SSW,197,4.3,15.0,81,0.00,,,1.05,Meteorologica,2013-03-24 23:34:00,
2013-03-24 19:39:00,50.5,44.5,29.53,South,172,6.4,12.5,79,0.00,,,1.05,Meteorologica,2013-03-24 23:39:00,
2013-03-24 19:44:00,50.4,44.4,29.53,SSW,197,3.9,10.2,79,0.00,,,1.05,Meteorologica,2013-03-24 23:44:00,
2013-03-24 19:49:00,50.3,44.6,29.53,SW,224,6.3,12.9,80,0.00,,,1.05,Meteorologica,2013-03-24 23:49:00,
2013-03-24 19:54:00,50.1,43.5,29.54,SW,230,7.9,17.3,77,0.00,,,1.05,Meteorologica,2013-03-24 23:54:00,
2013-03-24 19:59:00,50.1,43.6,29.54,SSW,204,3.1,13.1,78,0.00,,,1.05,Meteorologica,2013-03-24 23:59:00,
2013-03-24 20:04:00,50.1,44.3,29.55,SSW,212,2.7,9.5,80,0.00,,,1.05,Meteorologica,2013-03-25 00:04:00,
2013-03-24 20:09:00,50.0,44.3,29.55,SSW,196,0.6,7.3,80,0.00,,,1.05,Meteorologica,2013-03-25 00:09:00,
2013-03-24 20:14:00,49.8,44.4,29.55,West,265,2.5,6.4,81,0.00,,,1.05,Meteorologica,2013-03-25 00:14:00,
2013-03-24 20:19:00,49.7,44.3,29.56,SW,216,4.9,8.7,81,0.00,,,1.05,Meteorologica,2013-03-25 00:19:00,
2013-03-24 20:24:00,49.7,43.8,29.56,SSW,202,7.1,9.8,80,0.00,,,1.05,Meteorologica,2013-03-25 00:24:00,
2013-03-24 20:30:00,49.8,41.0,29.57,SE,141,11.1,23.6,71,0.00,,,1.05,Meteorologica,2013-03-25 00:30:00,
2013-03-24 20:34:00,50.0,40.7,29.57,East,98,4.1,18.8,69,0.00,,,1.05,Meteorologica,2013-03-25 00:34:00,
2013-03-24 20:40:00,50.0,39.6,29.58,WSW,240,7.2,14.7,67,0.00,,,1.05,Meteorologica,2013-03-25 00:40:00,
2013-03-24 20:45:00,49.6,39.3,29.59,SE,139,5.1,17.1,65,0.00,,,1.05,Meteorologica,2013-03-25 00:45:00,
2013-03-24 20:50:00,49.2,38.3,29.60,West,269,8.6,14.9,65,0.00,,,1.05,Meteorologica,2013-03-25 00:50:00,
2013-03-24 20:55:00,49.1,38.6,29.61,SW,228,2.4,17.5,66,0.00,,,1.05,Meteorologica,2013-03-25 00:55:00,
2013-03-24 21:00:00,48.6,37.6,29.62,WSW,251,5.6,18.4,65,0.00,,,1.05,Meteorologica,2013-03-25 01:00:00,
2013-03-24 21:05:00,48.2,37.8,29.63,NNE,26,5.5,13.5,65,0.00,,,1.05,Meteorologica,2013-03-25 01:05:00,
2013-03-24 21:10:00,47.4,35.5,29.63,NNE,17,9.1,19.5,63,0.00,,,1.05,Meteorologica,2013-03-25 01:10:00,
2013-03-24 21:15:00,46.3,34.3,29.64,WSW,255,6.2,22.6,62,0.00,,,1.05,Meteorologica,2013-03-25 01:15:00,
2013-03-24 21:20:00,45.6,34.0,29.65,SW,230,5.2,21.3,63,0.00,,,1.05,Meteorologica,2013-03-25 01:20:00,
2013-03-24 21:25:00,45.0,33.7,29.65,NNE,22,5.6,19.2,64,0.00,,,1.05,Meteorologica,2013-03-25 01:25:00,
2013-03-24 21:30:00,44.5,33.2,29.65,SSW,192,6.9,15.9,64,0.00,,,1.05,Meteorologica,2013-03-25 01:30:00,
2013-03-24 21:35:00,44.2,32.5,29.65,WSW,255,7.7,22.6,63,0.00,,,1.05,Meteorologica,2013-03-25 01:35:00,
2013-03-24 21:40:00,44.1,33.6,29.66,NNW,348,4.2,13.5,66,0.00,,,1.05,Meteorologica,2013-03-25 01:40:00,
2013-03-24 21:45:00,43.9,33.1,29.66,SE,128,4.0,11.4,65,0.00,,,1.05,Meteorologica,2013-03-25 01:45:00,
2013-03-24 21:50:00,43.8,33.0,29.66,WSW,250,6.4,17.2,65,0.00,,,1.05,Meteorologica,2013-03-25 01:50:00,
2013-03-24 21:55:00,43.7,33.0,29.66,SSW,200,5.3,13.5,65,0.00,,,1.05,Meteorologica,2013-03-25 01:55:00,
2013-03-24 22:00:00,43.6,33.1,29.66,SSW,201,8.1,11.8,66,0.00,,,1.05,Meteorologica,2013-03-25 02:00:00,
2013-03-24 22:05:00,43.6,33.3,29.66,SW,227,7.5,14.4,66,0.00,,,1.05,Meteorologica,2013-03-25 02:05:00,
2013-03-24 22:10:00,43.5,33.5,29.66,South,180,4.8,13.0,67,0.00,,,1.05,Meteorologica,2013-03-25 02:10:00,
2013-03-24 22:15:00,43.4,33.5,29.67,SSW,197,7.0,13.8,67,0.00,,,1.05,Meteorologica,2013-03-25 02:15:00,
2013-03-24 22:20:00,43.5,33.7,29.67,SSW,209,8.5,14.3,67,0.00,,,1.05,Meteorologica,2013-03-25 02:20:00,
2013-03-24 22:25:00,43.3,33.4,29.67,SSE,166,6.1,17.2,67,0.00,,,1.05,Meteorologica,2013-03-25 02:25:00,
2013-03-24 22:30:00,43.2,33.4,29.67,South,191,2.9,16.4,67,0.00,,,1.05,Meteorologica,2013-03-25 02:30:00,
2013-03-24 22:35:00,43.2,33.0,29.67,South,191,3.2,13.1,66,0.00,,,1.05,Meteorologica,2013-03-25 02:35:00,
2013-03-24 22:40:00,43.1,32.9,29.68,SSW,193,9.2,13.0,65,0.00,,,1.05,Meteorologica,2013-03-25 02:40:00,
2013-03-24 22:45:00,42.9,32.7,29.68,South,175,6.7,17.9,66,0.00,,,1.05,Meteorologica,2013-03-25 02:45:00,
2013-03-24 22:50:00,42.9,32.9,29.68,SE,136,3.5,17.5,67,0.00,,,1.05,Meteorologica,2013-03-25 02:50:00,
2013-03-24 22:55:00,42.9,32.8,29.68,NNE,27,6.2,9.1,67,0.00,,,1.05,Meteorologica,2013-03-25 02:55:00,
2013-03-24 23:00:00,42.8,32.6,29.68,WSW,247,7.7,15.6,66,0.00,,,1.05,Meteorologica,2013-03-25 03:00:00,
2013-03-24 23:05:00,42.8,32.6,29.68,SSW,211,6.1,19.1,66,0.00,,,1.05,Meteorologica,2013-03-25 03:05:00,
2013-03-24 23:10:00,42.6,31.8,29.68,WSW,247,4.6,16.4,65,0.00,,,1.05,Meteorologica,2013-03-25 03:10:00,
2013-03-24 23:15:00,42.5,31.9,29.68,SW,217,6.9,17.4,66,0.00,,,1.05,Meteorologica,2013-03-25 03:15:00,
2013-03-24 23:20:00,42.4,32.1,29.69,SW,224,7.1,15.1,66,0.00,,,1.05,Meteorologica,2013-03-25 03:20:00,
2013-03-24 23:25:00,42.3,32.1,29.69,West,268,6.1,12.2,66,0.00,,,1.05,Meteorologica,2013-03-25 03:25:00,
2013-03-24 23:30:00,42.3,32.3,29.68,SW,215,5.5,11.7,67,0.00,,,1.05,Meteorologica,2013-03-25 03:30:00,
2013-03-24 23:35:00,42.3,32.6,29.69,SSW,206,2.9,9.0,68,0.00,,,1.05,Meteorologica,2013-03-25 03:35:00,
2013-03-24 23:40:00,42.3,32.9,29.69,SSE,162,3.8,11.8,68,0.00,,,1.05,Meteorologica,2013-03-25 03:40:00,
2013-03-24 23:45:00,42.2,32.9,29.69,South,180,4.2,10.4,69,0.00,,,1.05,Meteorologica,2013-03-25 03:45:00,
2013-03-24 23:50:00,42.1,32.8,29.68,South,177,4.1,10.8,69,0.00,,,1.05,Meteorologica,2013-03-25 03:50:00,
2013-03-24 23:55:00,42.1,32.4,29.69,SSE,168,7.4,8.6,68,0.00,,,1.05,Meteorologica,2013-03-25 03:55:00,